createdAt,value
2018-12-15T00:00:03.929Z,15
2018-12-15T00:10:09.299Z,16
2018-12-15T00:20:16.585Z,13
2018-12-15T00:30:23.234Z,15
2018-12-15T00:40:30.395Z,14
2018-12-15T00:50:36.675Z,16
2018-12-15T01:00:43.949Z,14
2018-12-15T01:10:50.932Z,12
2018-12-15T01:20:56.172Z,12
2018-12-15T01:31:04.101Z,12
2018-12-15T01:41:12.549Z,13
2018-12-15T01:51:20.720Z,12
2018-12-15T02:01:30.265Z,12
2018-12-15T02:11:36.938Z,14
2018-12-15T02:21:44.157Z,13
2018-12-15T02:31:51.137Z,12
2018-12-15T02:41:58.876Z,12
2018-12-15T02:52:04.377Z,11
2018-12-15T03:02:11.816Z,18
2018-12-15T03:12:18.068Z,20
2018-12-15T03:22:25.681Z,17
2018-12-15T03:32:32.599Z,12
2018-12-15T03:42:38.055Z,14
2018-12-15T03:52:44.348Z,13
2018-12-15T04:02:52.033Z,15
2018-12-15T04:12:59.855Z,11
2018-12-15T04:23:08.091Z,10
2018-12-15T04:33:18.954Z,11
2018-12-15T04:43:25.410Z,11
2018-12-15T04:53:33.937Z,12
2018-12-15T05:03:39.740Z,11
2018-12-15T05:13:47.791Z,10
2018-12-15T05:23:56.387Z,11
2018-12-15T05:34:05.480Z,9
2018-12-15T05:44:11.230Z,12
2018-12-15T05:44:56.206Z,21
2018-12-15T05:55:04.820Z,10
2018-12-15T06:05:14.387Z,11
2018-12-15T06:15:21.591Z,12
2018-12-15T06:25:29.575Z,15
2018-12-15T06:35:36.491Z,11
2018-12-15T06:45:44.668Z,12
2018-12-15T06:55:54.384Z,11
2018-12-15T07:06:01.588Z,13
2018-12-15T07:16:11.301Z,10
2018-12-15T07:26:21.769Z,13
2018-12-15T07:35:41.225Z,11
2018-12-15T07:45:47.688Z,12
2018-12-15T07:55:54.217Z,14
2018-12-15T08:06:00.194Z,12
2018-12-15T08:07:13.598Z,22
2018-12-15T08:17:19.281Z,13
2018-12-15T08:27:26.461Z,12
2018-12-15T08:37:33.172Z,14
2018-12-15T08:47:40.952Z,10
2018-12-15T08:57:49.320Z,13
2018-12-15T09:07:55.782Z,12
2018-12-15T09:18:03.741Z,17
2018-12-15T09:28:10.786Z,13
2018-12-15T09:38:18.403Z,16
2018-12-15T09:48:26.922Z,19
2018-12-15T09:56:45.082Z,12
2018-12-15T10:07:31.219Z,12
2018-12-15T10:17:33.052Z,14
2018-12-15T10:27:40.470Z,16
2018-12-15T10:37:47.080Z,35
2018-12-15T10:48:11.945Z,11
2018-12-15T10:58:15.947Z,12
2018-12-15T11:08:23.832Z,11
2018-12-15T11:18:48.713Z,12
2018-12-15T11:20:11.543Z,12
2018-12-15T11:27:42.497Z,10
2018-12-15T11:37:48.960Z,13
2018-12-15T11:48:00.096Z,12
2018-12-15T11:54:20.141Z,11
2018-12-15T12:04:26.642Z,14
2018-12-15T12:14:34.176Z,13
2018-12-15T12:22:53.446Z,15
2018-12-15T12:43:09.792Z,15
2018-12-15T12:50:37.774Z,14
2018-12-15T13:00:47.838Z,12
2018-12-15T13:08:11.347Z,15
2018-12-15T13:10:51.586Z,13
2018-12-15T13:13:03.888Z,15
2018-12-15T13:23:10.706Z,13
2018-12-15T13:33:18.109Z,15
2018-12-15T13:43:27.231Z,15
2018-12-15T13:53:35.004Z,15
2018-12-15T14:03:40.802Z,16
2018-12-15T14:13:49.732Z,15
2018-12-15T14:23:55.159Z,14
2018-12-15T14:34:02.777Z,18
2018-12-15T14:44:09.322Z,17
2018-12-15T14:54:17.353Z,17
2018-12-15T15:04:23.373Z,17
2018-12-15T15:14:30.140Z,17
2018-12-15T15:24:37.616Z,15
2018-12-15T15:28:10.014Z,16
2018-12-15T15:38:10.718Z,17
2018-12-15T15:48:19.060Z,19
2018-12-15T15:58:28.045Z,15
2018-12-15T16:08:35.175Z,13
2018-12-15T16:18:42.788Z,13
2018-12-15T16:26:13.450Z,14
2018-12-15T16:31:29.541Z,11
2018-12-15T16:41:42.016Z,16
2018-12-15T16:42:21.648Z,15
2018-12-15T16:49:40.571Z,16
2018-12-15T16:59:45.107Z,15
2018-12-15T17:09:53.529Z,15
2018-12-15T17:20:03.000Z,21
2018-12-15T17:30:10.202Z,16
2018-12-15T17:40:20.719Z,16
2018-12-15T17:50:30.448Z,15
2018-12-15T17:51:40.602Z,21
2018-12-15T18:01:50.142Z,21
2018-12-15T18:09:23.786Z,19
2018-12-15T18:19:42.404Z,25
2018-12-15T18:20:55.621Z,27
2018-12-15T18:30:59.000Z,28
2018-12-15T18:34:13.253Z,22
2018-12-15T18:44:19.949Z,32
2018-12-15T18:54:26.565Z,32
2018-12-15T19:04:34.028Z,30
2018-12-15T19:14:42.320Z,30
2018-12-15T19:22:01.433Z,27
2018-12-15T19:32:10.304Z,25
2018-12-15T19:42:18.474Z,17
2018-12-15T19:52:25.720Z,22
2018-12-15T20:02:32.731Z,20
2018-12-15T20:12:39.854Z,19
2018-12-15T20:22:48.937Z,14
2018-12-15T20:32:59.852Z,17
2018-12-15T20:43:05.432Z,16
2018-12-15T20:45:19.257Z,19
2018-12-15T20:55:26.969Z,17
2018-12-15T21:05:37.454Z,19
2018-12-15T21:15:40.317Z,18
2018-12-15T21:25:47.775Z,22
2018-12-15T21:35:55.387Z,17
2018-12-15T21:46:02.818Z,22
2018-12-15T21:56:09.587Z,21
2018-12-15T22:06:16.310Z,20
2018-12-15T22:16:25.152Z,23
2018-12-15T22:22:41.231Z,17
2018-12-15T22:32:47.801Z,12
2018-12-15T22:42:53.806Z,12
2018-12-15T22:53:00.952Z,11
2018-12-15T23:03:09.062Z,11
2018-12-15T23:13:18.124Z,13
2018-12-15T23:23:25.919Z,16
2018-12-15T23:33:33.349Z,13
2018-12-15T23:43:42.748Z,11
2018-12-15T23:53:00.768Z,10
